sensor_id;sensor_type;location;lat;lon;timestamp;pressure;altitude;pressure_sealevel;temperature;humidity
70437;BME280;57877;39.750;-104.894;2023-05-03T00:01:08;83511.98;;;19.96;19.02
70437;BME280;57877;39.750;-104.894;2023-05-03T00:03:34;83518.04;;;20.00;19.02
70437;BME280;57877;39.750;-104.894;2023-05-03T00:08:26;83526.53;;;20.56;18.65
70437;BME280;57877;39.750;-104.894;2023-05-03T00:10:59;83530.12;;;20.17;18.68
70437;BME280;57877;39.750;-104.894;2023-05-03T00:13:18;83530.28;;;20.08;18.54
70437;BME280;57877;39.750;-104.894;2023-05-03T00:15:44;83536.34;;;21.08;17.84
70437;BME280;57877;39.750;-104.894;2023-05-03T00:18:10;83538.42;;;21.01;18.07
70437;BME280;57877;39.750;-104.894;2023-05-03T00:20:36;83538.84;;;21.54;17.54
70437;BME280;57877;39.750;-104.894;2023-05-03T00:23:02;83539.31;;;21.55;17.44
70437;BME280;57877;39.750;-104.894;2023-05-03T00:25:28;83541.11;;;20.99;17.67
70437;BME280;57877;39.750;-104.894;2023-05-03T00:27:54;83537.95;;;21.53;17.43
70437;BME280;57877;39.750;-104.894;2023-05-03T00:30:20;83536.05;;;21.39;17.37
70437;BME280;57877;39.750;-104.894;2023-05-03T00:32:46;83535.82;;;21.75;17.43
70437;BME280;57877;39.750;-104.894;2023-05-03T00:35:11;83531.96;;;21.52;17.24
70437;BME280;57877;39.750;-104.894;2023-05-03T00:37:37;83537.38;;;21.92;17.31
70437;BME280;57877;39.750;-104.894;2023-05-03T00:40:04;83539.52;;;21.58;17.41
70437;BME280;57877;39.750;-104.894;2023-05-03T00:42:29;83543.71;;;21.49;17.73
70437;BME280;57877;39.750;-104.894;2023-05-03T00:44:55;83551.36;;;20.48;19.34
70437;BME280;57877;39.750;-104.894;2023-05-03T00:47:21;83550.51;;;19.25;21.56
70437;BME280;57877;39.750;-104.894;2023-05-03T00:49:47;83551.50;;;19.56;22.51
70437;BME280;57877;39.750;-104.894;2023-05-03T00:52:12;83555.67;;;19.26;22.89
70437;BME280;57877;39.750;-104.894;2023-05-03T00:54:37;83562.01;;;19.09;22.70
70437;BME280;57877;39.750;-104.894;2023-05-03T00:57:04;83562.68;;;18.81;23.45
70437;BME280;57877;39.750;-104.894;2023-05-03T00:59:29;83566.70;;;18.54;23.79
70437;BME280;57877;39.750;-104.894;2023-05-03T01:01:55;83565.14;;;18.46;23.90
70437;BME280;57877;39.750;-104.894;2023-05-03T01:04:21;83561.09;;;17.80;25.15
70437;BME280;57877;39.750;-104.894;2023-05-03T01:06:53;83558.56;;;18.47;24.69
70437;BME280;57877;39.750;-104.894;2023-05-03T01:09:14;83556.55;;;18.07;25.12
70437;BME280;57877;39.750;-104.894;2023-05-03T01:11:43;83557.28;;;18.67;24.60
70437;BME280;57877;39.750;-104.894;2023-05-03T01:14:06;83556.45;;;18.47;24.43
70437;BME280;57877;39.750;-104.894;2023-05-03T01:16:32;83556.20;;;18.70;24.42
70437;BME280;57877;39.750;-104.894;2023-05-03T01:18:52;83548.29;;;18.62;24.17
70437;BME280;57877;39.750;-104.894;2023-05-03T01:21:17;83540.84;;;18.58;24.24
70437;BME280;57877;39.750;-104.894;2023-05-03T01:23:44;83537.80;;;18.88;24.08
70437;BME280;57877;39.750;-104.894;2023-05-03T01:26:13;83533.91;;;18.96;24.00
70437;BME280;57877;39.750;-104.894;2023-05-03T01:28:31;83536.55;;;19.18;23.79
70437;BME280;57877;39.750;-104.894;2023-05-03T01:30:57;83535.30;;;19.16;23.70
70437;BME280;57877;39.750;-104.894;2023-05-03T01:33:29;83540.25;;;18.60;24.15
70437;BME280;57877;39.750;-104.894;2023-05-03T01:35:51;83542.66;;;18.42;24.36
70437;BME280;57877;39.750;-104.894;2023-05-03T01:38:12;83536.24;;;18.68;24.07
70437;BME280;57877;39.750;-104.894;2023-05-03T01:40:43;83533.64;;;19.14;23.68
70437;BME280;57877;39.750;-104.894;2023-05-03T01:43:02;83536.45;;;19.65;23.31
70437;BME280;57877;39.750;-104.894;2023-05-03T01:45:27;83537.23;;;18.47;23.81
70437;BME280;57877;39.750;-104.894;2023-05-03T01:47:52;83538.78;;;18.88;23.94
70437;BME280;57877;39.750;-104.894;2023-05-03T01:50:17;83534.36;;;18.63;24.23
70437;BME280;57877;39.750;-104.894;2023-05-03T01:52:42;83537.78;;;18.75;24.33
70437;BME280;57877;39.750;-104.894;2023-05-03T01:55:08;83536.42;;;17.88;25.36
70437;BME280;57877;39.750;-104.894;2023-05-03T01:57:32;83533.62;;;17.75;25.55
70437;BME280;57877;39.750;-104.894;2023-05-03T01:59:57;83509.69;;;17.62;28.64
70437;BME280;57877;39.750;-104.894;2023-05-03T02:02:22;83493.24;;;17.91;28.40
70437;BME280;57877;39.750;-104.894;2023-05-03T02:04:48;83477.62;;;18.29;28.89
70437;BME280;57877;39.750;-104.894;2023-05-03T02:07:12;83462.95;;;17.73;28.89
70437;BME280;57877;39.750;-104.894;2023-05-03T02:09:38;83453.48;;;16.88;29.15
70437;BME280;57877;39.750;-104.894;2023-05-03T02:12:04;83456.93;;;17.87;28.44
70437;BME280;57877;39.750;-104.894;2023-05-03T02:14:28;83453.20;;;17.49;27.46
70437;BME280;57877;39.750;-104.894;2023-05-03T02:16:53;83472.30;;;18.16;26.35
70437;BME280;57877;39.750;-104.894;2023-05-03T02:19:19;83497.70;;;16.83;27.68
70437;BME280;57877;39.750;-104.894;2023-05-03T02:21:45;83488.66;;;16.23;28.71
70437;BME280;57877;39.750;-104.894;2023-05-03T02:24:11;83498.10;;;16.58;28.35
70437;BME280;57877;39.750;-104.894;2023-05-03T02:26:37;83499.52;;;16.36;29.15
70437;BME280;57877;39.750;-104.894;2023-05-03T02:29:03;83511.33;;;15.99;30.36
70437;BME280;57877;39.750;-104.894;2023-05-03T02:31:29;83511.76;;;15.92;30.58
70437;BME280;57877;39.750;-104.894;2023-05-03T02:33:55;83538.27;;;15.79;31.39
70437;BME280;57877;39.750;-104.894;2023-05-03T02:36:21;83549.01;;;15.90;30.80
70437;BME280;57877;39.750;-104.894;2023-05-03T02:38:47;83547.55;;;16.26;30.33
70437;BME280;57877;39.750;-104.894;2023-05-03T02:41:13;83550.43;;;16.07;30.43
70437;BME280;57877;39.750;-104.894;2023-05-03T02:43:39;83554.71;;;15.90;30.95
70437;BME280;57877;39.750;-104.894;2023-05-03T02:46:05;83552.44;;;15.69;31.13
70437;BME280;57877;39.750;-104.894;2023-05-03T02:48:32;83560.14;;;16.14;30.69
70437;BME280;57877;39.750;-104.894;2023-05-03T02:50:58;83566.95;;;16.62;30.28
70437;BME280;57877;39.750;-104.894;2023-05-03T02:53:24;83571.03;;;16.51;30.15
70437;BME280;57877;39.750;-104.894;2023-05-03T02:55:50;83577.91;;;16.65;29.43
70437;BME280;57877;39.750;-104.894;2023-05-03T02:58:15;83582.80;;;16.43;29.83
70437;BME280;57877;39.750;-104.894;2023-05-03T03:00:42;83585.19;;;16.78;29.29
70437;BME280;57877;39.750;-104.894;2023-05-03T03:03:07;83586.11;;;17.15;28.91
70437;BME280;57877;39.750;-104.894;2023-05-03T03:05:33;83585.16;;;17.02;28.97
70437;BME280;57877;39.750;-104.894;2023-05-03T03:07:59;83588.50;;;17.12;28.73
70437;BME280;57877;39.750;-104.894;2023-05-03T03:10:25;83592.02;;;16.88;28.87
70437;BME280;57877;39.750;-104.894;2023-05-03T03:12:52;83588.48;;;16.98;29.07
70437;BME280;57877;39.750;-104.894;2023-05-03T03:15:17;83586.71;;;16.14;29.17
70437;BME280;57877;39.750;-104.894;2023-05-03T03:17:43;83588.95;;;16.28;29.36
70437;BME280;57877;39.750;-104.894;2023-05-03T03:20:10;83587.70;;;16.51;29.63
70437;BME280;57877;39.750;-104.894;2023-05-03T03:22:35;83583.64;;;16.41;29.37
70437;BME280;57877;39.750;-104.894;2023-05-03T03:25:01;83580.75;;;16.20;29.62
70437;BME280;57877;39.750;-104.894;2023-05-03T03:27:27;83577.05;;;16.37;29.48
70437;BME280;57877;39.750;-104.894;2023-05-03T03:29:53;83576.44;;;16.37;29.51
70437;BME280;57877;39.750;-104.894;2023-05-03T03:32:19;83576.07;;;16.26;29.67
70437;BME280;57877;39.750;-104.894;2023-05-03T03:34:45;83575.99;;;16.37;29.66
70437;BME280;57877;39.750;-104.894;2023-05-03T03:37:11;83577.11;;;16.01;30.03
70437;BME280;57877;39.750;-104.894;2023-05-03T03:39:37;83575.95;;;16.31;30.08
70437;BME280;57877;39.750;-104.894;2023-05-03T03:42:03;83573.89;;;15.87;30.72
70437;BME280;57877;39.750;-104.894;2023-05-03T03:44:29;83575.83;;;16.52;30.30
70437;BME280;57877;39.750;-104.894;2023-05-03T03:46:55;83576.11;;;16.77;29.96
70437;BME280;57877;39.750;-104.894;2023-05-03T03:49:21;83575.14;;;16.05;30.58
70437;BME280;57877;39.750;-104.894;2023-05-03T03:51:47;83572.43;;;15.98;30.73
70437;BME280;57877;39.750;-104.894;2023-05-03T03:54:13;83571.21;;;15.96;30.79
70437;BME280;57877;39.750;-104.894;2023-05-03T03:56:39;83575.53;;;16.20;30.73
70437;BME280;57877;39.750;-104.894;2023-05-03T03:59:05;83576.97;;;15.60;31.19
70437;BME280;57877;39.750;-104.894;2023-05-03T04:01:30;83582.63;;;16.22;30.48
70437;BME280;57877;39.750;-104.894;2023-05-03T04:03:56;83580.66;;;15.97;30.42
70437;BME280;57877;39.750;-104.894;2023-05-03T04:06:22;83575.39;;;16.38;30.29
70437;BME280;57877;39.750;-104.894;2023-05-03T04:08:48;83571.32;;;14.87;32.08
70437;BME280;57877;39.750;-104.894;2023-05-03T04:11:14;83567.69;;;14.98;31.89
70437;BME280;57877;39.750;-104.894;2023-05-03T04:13:40;83562.39;;;15.76;30.90
70437;BME280;57877;39.750;-104.894;2023-05-03T04:16:07;83560.11;;;15.96;30.94
70437;BME280;57877;39.750;-104.894;2023-05-03T04:18:32;83556.44;;;15.67;31.22
70437;BME280;57877;39.750;-104.894;2023-05-03T04:20:58;83555.97;;;15.13;31.87
70437;BME280;57877;39.750;-104.894;2023-05-03T04:23:24;83557.41;;;14.81;32.56
70437;BME280;57877;39.750;-104.894;2023-05-03T04:25:50;83558.00;;;15.18;31.76
70437;BME280;57877;39.750;-104.894;2023-05-03T04:28:16;83559.26;;;15.81;31.00
70437;BME280;57877;39.750;-104.894;2023-05-03T04:30:42;83555.40;;;15.55;30.92
70437;BME280;57877;39.750;-104.894;2023-05-03T04:33:08;83557.38;;;15.45;31.27
70437;BME280;57877;39.750;-104.894;2023-05-03T04:35:34;83558.68;;;15.27;31.42
70437;BME280;57877;39.750;-104.894;2023-05-03T04:38:00;83558.29;;;15.14;31.48
70437;BME280;57877;39.750;-104.894;2023-05-03T04:40:26;83558.59;;;15.29;31.33
70437;BME280;57877;39.750;-104.894;2023-05-03T04:42:52;83561.32;;;15.70;30.75
70437;BME280;57877;39.750;-104.894;2023-05-03T04:45:18;83558.10;;;15.37;30.48
70437;BME280;57877;39.750;-104.894;2023-05-03T04:47:44;83558.25;;;15.56;30.47
70437;BME280;57877;39.750;-104.894;2023-05-03T04:50:10;83561.69;;;15.65;30.11
70437;BME280;57877;39.750;-104.894;2023-05-03T04:52:36;83561.64;;;15.67;29.99
70437;BME280;57877;39.750;-104.894;2023-05-03T04:55:01;83560.26;;;15.80;29.90
70437;BME280;57877;39.750;-104.894;2023-05-03T04:57:27;83558.66;;;15.93;29.78
70437;BME280;57877;39.750;-104.894;2023-05-03T04:59:54;83556.44;;;16.36;29.56
70437;BME280;57877;39.750;-104.894;2023-05-03T05:02:19;83555.28;;;15.93;29.63
70437;BME280;57877;39.750;-104.894;2023-05-03T05:04:45;83552.90;;;15.80;30.44
70437;BME280;57877;39.750;-104.894;2023-05-03T05:07:12;83549.77;;;15.57;30.41
70437;BME280;57877;39.750;-104.894;2023-05-03T05:09:38;83548.49;;;15.69;30.47
70437;BME280;57877;39.750;-104.894;2023-05-03T05:12:04;83542.56;;;15.78;30.45
70437;BME280;57877;39.750;-104.894;2023-05-03T05:14:31;83541.28;;;15.47;30.52
70437;BME280;57877;39.750;-104.894;2023-05-03T05:16:55;83539.69;;;15.85;30.32
70437;BME280;57877;39.750;-104.894;2023-05-03T05:19:21;83536.82;;;15.63;30.55
70437;BME280;57877;39.750;-104.894;2023-05-03T05:21:47;83539.94;;;15.67;30.48
70437;BME280;57877;39.750;-104.894;2023-05-03T05:24:13;83541.03;;;15.49;30.36
70437;BME280;57877;39.750;-104.894;2023-05-03T05:26:41;83542.16;;;15.60;30.32
70437;BME280;57877;39.750;-104.894;2023-05-03T05:29:04;83543.43;;;15.18;30.74
70437;BME280;57877;39.750;-104.894;2023-05-03T05:31:31;83538.89;;;15.06;30.72
70437;BME280;57877;39.750;-104.894;2023-05-03T05:33:56;83537.46;;;14.78;31.05
70437;BME280;57877;39.750;-104.894;2023-05-03T05:36:22;83537.40;;;14.99;31.33
70437;BME280;57877;39.750;-104.894;2023-05-03T05:38:48;83537.69;;;14.68;31.36
70437;BME280;57877;39.750;-104.894;2023-05-03T05:41:14;83534.69;;;14.73;31.62
70437;BME280;57877;39.750;-104.894;2023-05-03T05:43:40;83534.47;;;14.77;31.13
70437;BME280;57877;39.750;-104.894;2023-05-03T05:46:06;83533.91;;;14.58;31.29
70437;BME280;57877;39.750;-104.894;2023-05-03T05:48:32;83532.17;;;14.32;31.86
70437;BME280;57877;39.750;-104.894;2023-05-03T05:50:58;83532.21;;;14.11;31.69
70437;BME280;57877;39.750;-104.894;2023-05-03T05:53:24;83534.12;;;14.30;31.80
70437;BME280;57877;39.750;-104.894;2023-05-03T05:55:50;83534.40;;;14.47;31.48
70437;BME280;57877;39.750;-104.894;2023-05-03T05:58:16;83536.62;;;14.27;31.83
70437;BME280;57877;39.750;-104.894;2023-05-03T06:00:42;83530.36;;;14.23;31.82
70437;BME280;57877;39.750;-104.894;2023-05-03T06:03:08;83533.29;;;14.14;31.56
70437;BME280;57877;39.750;-104.894;2023-05-03T06:05:34;83531.79;;;14.40;31.36
70437;BME280;57877;39.750;-104.894;2023-05-03T06:08:00;83529.73;;;14.40;31.17
70437;BME280;57877;39.750;-104.894;2023-05-03T06:10:26;83529.28;;;14.66;30.89
70437;BME280;57877;39.750;-104.894;2023-05-03T06:12:52;83527.73;;;14.78;30.65
70437;BME280;57877;39.750;-104.894;2023-05-03T06:15:18;83524.98;;;14.61;30.16
70437;BME280;57877;39.750;-104.894;2023-05-03T06:17:44;83522.74;;;15.12;30.16
70437;BME280;57877;39.750;-104.894;2023-05-03T06:20:10;83522.57;;;14.72;30.10
70437;BME280;57877;39.750;-104.894;2023-05-03T06:22:36;83525.18;;;14.94;30.28
70437;BME280;57877;39.750;-104.894;2023-05-03T06:25:02;83522.40;;;15.05;30.10
70437;BME280;57877;39.750;-104.894;2023-05-03T06:27:28;83520.68;;;14.90;29.86
70437;BME280;57877;39.750;-104.894;2023-05-03T06:29:54;83520.75;;;14.67;30.01
70437;BME280;57877;39.750;-104.894;2023-05-03T06:32:20;83521.93;;;14.96;29.80
70437;BME280;57877;39.750;-104.894;2023-05-03T06:34:46;83524.27;;;15.06;29.58
70437;BME280;57877;39.750;-104.894;2023-05-03T06:37:12;83527.36;;;15.09;29.62
70437;BME280;57877;39.750;-104.894;2023-05-03T06:39:37;83531.61;;;15.22;29.38
70437;BME280;57877;39.750;-104.894;2023-05-03T06:42:04;83530.71;;;15.25;29.40
70437;BME280;57877;39.750;-104.894;2023-05-03T06:44:29;83528.73;;;14.91;29.64
70437;BME280;57877;39.750;-104.894;2023-05-03T06:46:55;83528.86;;;14.87;29.68
70437;BME280;57877;39.750;-104.894;2023-05-03T06:49:21;83525.46;;;14.99;29.59
70437;BME280;57877;39.750;-104.894;2023-05-03T06:51:47;83524.42;;;15.15;29.85
70437;BME280;57877;39.750;-104.894;2023-05-03T06:54:13;83523.50;;;14.77;29.85
70437;BME280;57877;39.750;-104.894;2023-05-03T06:56:39;83524.39;;;14.47;30.22
70437;BME280;57877;39.750;-104.894;2023-05-03T06:59:05;83522.64;;;14.73;30.33
70437;BME280;57877;39.750;-104.894;2023-05-03T07:01:31;83523.87;;;14.71;30.01
70437;BME280;57877;39.750;-104.894;2023-05-03T07:03:57;83526.44;;;14.99;30.06
70437;BME280;57877;39.750;-104.894;2023-05-03T07:06:24;83529.15;;;14.67;30.44
70437;BME280;57877;39.750;-104.894;2023-05-03T07:08:49;83526.71;;;14.66;30.59
70437;BME280;57877;39.750;-104.894;2023-05-03T07:11:15;83526.52;;;14.02;31.32
70437;BME280;57877;39.750;-104.894;2023-05-03T07:13:41;83529.56;;;13.85;31.58
70437;BME280;57877;39.750;-104.894;2023-05-03T07:16:07;83530.87;;;14.48;31.31
70437;BME280;57877;39.750;-104.894;2023-05-03T07:18:33;83533.63;;;14.71;31.04
70437;BME280;57877;39.750;-104.894;2023-05-03T07:20:58;83532.88;;;13.56;31.82
70437;BME280;57877;39.750;-104.894;2023-05-03T07:23:24;83534.77;;;14.20;31.32
70437;BME280;57877;39.750;-104.894;2023-05-03T07:25:50;83536.67;;;13.96;31.52
70437;BME280;57877;39.750;-104.894;2023-05-03T07:28:16;83534.44;;;14.23;31.57
70437;BME280;57877;39.750;-104.894;2023-05-03T07:30:42;83531.55;;;14.08;31.47
70437;BME280;57877;39.750;-104.894;2023-05-03T07:33:08;83530.62;;;14.44;31.28
70437;BME280;57877;39.750;-104.894;2023-05-03T07:35:34;83529.97;;;14.19;31.33
70437;BME280;57877;39.750;-104.894;2023-05-03T07:38:00;83529.54;;;13.91;31.97
70437;BME280;57877;39.750;-104.894;2023-05-03T07:40:26;83524.10;;;13.89;32.34
70437;BME280;57877;39.750;-104.894;2023-05-03T07:42:52;83516.87;;;13.64;32.30
70437;BME280;57877;39.750;-104.894;2023-05-03T07:45:18;83513.39;;;13.79;32.09
70437;BME280;57877;39.750;-104.894;2023-05-03T07:47:44;83519.98;;;13.53;32.42
70437;BME280;57877;39.750;-104.894;2023-05-03T07:50:10;83524.45;;;13.72;32.41
70437;BME280;57877;39.750;-104.894;2023-05-03T07:52:36;83522.69;;;13.43;32.56
70437;BME280;57877;39.750;-104.894;2023-05-03T07:55:02;83521.72;;;13.45;32.92
70437;BME280;57877;39.750;-104.894;2023-05-03T07:57:28;83522.14;;;13.78;32.94
70437;BME280;57877;39.750;-104.894;2023-05-03T07:59:54;83525.98;;;13.48;33.00
70437;BME280;57877;39.750;-104.894;2023-05-03T08:02:20;83529.20;;;13.09;33.17
70437;BME280;57877;39.750;-104.894;2023-05-03T08:04:46;83533.10;;;13.35;33.19
70437;BME280;57877;39.750;-104.894;2023-05-03T08:07:12;83538.83;;;13.37;33.17
70437;BME280;57877;39.750;-104.894;2023-05-03T08:09:38;83542.57;;;12.83;33.62
70437;BME280;57877;39.750;-104.894;2023-05-03T08:12:04;83540.21;;;13.05;33.63
70437;BME280;57877;39.750;-104.894;2023-05-03T08:14:30;83541.19;;;12.93;33.84
70437;BME280;57877;39.750;-104.894;2023-05-03T08:16:56;83542.93;;;13.04;34.13
70437;BME280;57877;39.750;-104.894;2023-05-03T08:19:22;83544.36;;;13.09;34.08
70437;BME280;57877;39.750;-104.894;2023-05-03T08:21:47;83540.97;;;13.27;34.05
70437;BME280;57877;39.750;-104.894;2023-05-03T08:24:13;83541.04;;;12.85;34.31
70437;BME280;57877;39.750;-104.894;2023-05-03T08:26:40;83539.45;;;12.97;34.49
70437;BME280;57877;39.750;-104.894;2023-05-03T08:29:05;83531.62;;;12.83;34.54
70437;BME280;57877;39.750;-104.894;2023-05-03T08:31:31;83524.08;;;13.42;34.10
70437;BME280;57877;39.750;-104.894;2023-05-03T08:33:57;83519.41;;;13.14;33.98
70437;BME280;57877;39.750;-104.894;2023-05-03T08:36:23;83522.75;;;13.12;34.78
70437;BME280;57877;39.750;-104.894;2023-05-03T08:38:49;83519.31;;;12.63;34.76
70437;BME280;57877;39.750;-104.894;2023-05-03T08:41:21;83519.32;;;12.81;34.93
70437;BME280;57877;39.750;-104.894;2023-05-03T08:43:44;83516.79;;;12.64;34.85
70437;BME280;57877;39.750;-104.894;2023-05-03T08:46:10;83514.40;;;12.66;35.24
70437;BME280;57877;39.750;-104.894;2023-05-03T08:48:33;83519.03;;;12.69;35.20
70437;BME280;57877;39.750;-104.894;2023-05-03T08:50:59;83528.13;;;12.72;35.05
70437;BME280;57877;39.750;-104.894;2023-05-03T08:53:25;83532.64;;;12.64;35.18
70437;BME280;57877;39.750;-104.894;2023-05-03T08:55:51;83537.38;;;12.84;34.75
70437;BME280;57877;39.750;-104.894;2023-05-03T08:58:17;83539.13;;;13.10;34.49
70437;BME280;57877;39.750;-104.894;2023-05-03T09:00:43;83539.02;;;13.00;34.73
70437;BME280;57877;39.750;-104.894;2023-05-03T09:03:09;83539.96;;;13.28;34.35
70437;BME280;57877;39.750;-104.894;2023-05-03T09:05:35;83536.55;;;13.17;34.44
70437;BME280;57877;39.750;-104.894;2023-05-03T09:08:02;83531.98;;;13.22;34.33
70437;BME280;57877;39.750;-104.894;2023-05-03T09:10:26;83526.01;;;13.07;34.13
70437;BME280;57877;39.750;-104.894;2023-05-03T09:12:58;83525.41;;;13.09;34.14
70437;BME280;57877;39.750;-104.894;2023-05-03T09:15:21;83527.52;;;12.81;34.50
70437;BME280;57877;39.750;-104.894;2023-05-03T09:17:44;83525.48;;;12.92;34.83
70437;BME280;57877;39.750;-104.894;2023-05-03T09:20:10;83524.43;;;12.81;35.03
70437;BME280;57877;39.750;-104.894;2023-05-03T09:22:35;83524.96;;;12.94;35.23
70437;BME280;57877;39.750;-104.894;2023-05-03T09:25:01;83526.44;;;12.76;35.05
70437;BME280;57877;39.750;-104.894;2023-05-03T09:27:27;83526.88;;;12.49;35.17
70437;BME280;57877;39.750;-104.894;2023-05-03T09:29:54;83528.56;;;12.69;35.01
70437;BME280;57877;39.750;-104.894;2023-05-03T09:32:20;83529.92;;;12.43;35.44
70437;BME280;57877;39.750;-104.894;2023-05-03T09:34:45;83528.09;;;12.53;35.12
70437;BME280;57877;39.750;-104.894;2023-05-03T09:37:11;83529.39;;;12.51;35.20
70437;BME280;57877;39.750;-104.894;2023-05-03T09:39:37;83527.35;;;12.70;34.99
70437;BME280;57877;39.750;-104.894;2023-05-03T09:42:14;83525.48;;;12.49;35.28
70437;BME280;57877;39.750;-104.894;2023-05-03T09:47:01;83522.11;;;13.02;34.39
70437;BME280;57877;39.750;-104.894;2023-05-03T09:49:21;83516.94;;;12.98;34.51
70437;BME280;57877;39.750;-104.894;2023-05-03T09:51:47;83516.38;;;13.28;34.07
70437;BME280;57877;39.750;-104.894;2023-05-03T09:54:15;83515.56;;;13.11;34.11
70437;BME280;57877;39.750;-104.894;2023-05-03T09:56:39;83514.67;;;13.01;34.00
70437;BME280;57877;39.750;-104.894;2023-05-03T09:59:05;83515.54;;;13.08;33.88
70437;BME280;57877;39.750;-104.894;2023-05-03T10:01:31;83519.70;;;13.31;33.59
70437;BME280;57877;39.750;-104.894;2023-05-03T10:03:59;83521.37;;;13.18;33.56
70437;BME280;57877;39.750;-104.894;2023-05-03T10:06:25;83524.56;;;12.97;33.68
70437;BME280;57877;39.750;-104.894;2023-05-03T10:08:52;83527.47;;;12.65;34.02
70437;BME280;57877;39.750;-104.894;2023-05-03T10:11:16;83525.49;;;12.67;34.13
70437;BME280;57877;39.750;-104.894;2023-05-03T10:13:41;83521.91;;;13.05;33.62
70437;BME280;57877;39.750;-104.894;2023-05-03T10:16:11;83521.58;;;13.46;33.46
70437;BME280;57877;39.750;-104.894;2023-05-03T10:18:38;83519.60;;;13.42;33.17
70437;BME280;57877;39.750;-104.894;2023-05-03T10:21:03;83520.85;;;13.15;33.24
70437;BME280;57877;39.750;-104.894;2023-05-03T10:23:25;83518.01;;;13.17;33.24
70437;BME280;57877;39.750;-104.894;2023-05-03T10:28:17;83515.28;;;13.33;33.54
70437;BME280;57877;39.750;-104.894;2023-05-03T10:30:43;83513.29;;;13.34;33.66
70437;BME280;57877;39.750;-104.894;2023-05-03T10:35:39;83513.29;;;13.10;33.79
70437;BME280;57877;39.750;-104.894;2023-05-03T10:42:54;83521.09;;;13.18;33.94
70437;BME280;57877;39.750;-104.894;2023-05-03T10:45:22;83527.25;;;13.15;34.00
70437;BME280;57877;39.750;-104.894;2023-05-03T10:52:44;83530.53;;;12.72;34.61
70437;BME280;57877;39.750;-104.894;2023-05-03T10:55:08;83530.55;;;12.89;34.34
70437;BME280;57877;39.750;-104.894;2023-05-03T10:57:31;83535.04;;;13.12;34.45
70437;BME280;57877;39.750;-104.894;2023-05-03T10:59:55;83535.39;;;13.07;34.24
70437;BME280;57877;39.750;-104.894;2023-05-03T11:02:25;83532.75;;;13.07;34.27
70437;BME280;57877;39.750;-104.894;2023-05-03T11:04:49;83529.60;;;13.00;34.36
70437;BME280;57877;39.750;-104.894;2023-05-03T11:07:18;83528.31;;;12.76;34.74
70437;BME280;57877;39.750;-104.894;2023-05-03T11:09:39;83527.02;;;12.49;35.51
70437;BME280;57877;39.750;-104.894;2023-05-03T11:12:06;83526.31;;;12.37;35.31
70437;BME280;57877;39.750;-104.894;2023-05-03T11:14:31;83525.77;;;12.13;36.01
70437;BME280;57877;39.750;-104.894;2023-05-03T11:16:57;83526.12;;;12.36;35.79
70437;BME280;57877;39.750;-104.894;2023-05-03T11:19:23;83528.31;;;12.26;35.91
70437;BME280;57877;39.750;-104.894;2023-05-03T11:21:49;83531.31;;;12.56;35.56
70437;BME280;57877;39.750;-104.894;2023-05-03T11:24:15;83531.17;;;12.82;35.13
70437;BME280;57877;39.750;-104.894;2023-05-03T11:26:41;83534.21;;;13.06;34.71
70437;BME280;57877;39.750;-104.894;2023-05-03T11:29:09;83537.17;;;12.68;34.85
70437;BME280;57877;39.750;-104.894;2023-05-03T11:31:33;83539.34;;;12.88;34.89
70437;BME280;57877;39.750;-104.894;2023-05-03T11:33:59;83541.28;;;13.10;34.77
70437;BME280;57877;39.750;-104.894;2023-05-03T11:36:25;83542.40;;;13.06;34.78
70437;BME280;57877;39.750;-104.894;2023-05-03T11:38:51;83545.34;;;12.83;34.76
70437;BME280;57877;39.750;-104.894;2023-05-03T11:41:17;83545.95;;;13.10;34.83
70437;BME280;57877;39.750;-104.894;2023-05-03T11:43:43;83545.98;;;12.95;34.96
70437;BME280;57877;39.750;-104.894;2023-05-03T11:46:09;83549.35;;;12.83;34.73
70437;BME280;57877;39.750;-104.894;2023-05-03T11:48:35;83550.94;;;13.09;34.78
70437;BME280;57877;39.750;-104.894;2023-05-03T11:51:06;83551.93;;;12.92;35.04
70437;BME280;57877;39.750;-104.894;2023-05-03T11:53:27;83554.47;;;12.77;35.26
70437;BME280;57877;39.750;-104.894;2023-05-03T11:55:53;83556.10;;;12.79;35.30
70437;BME280;57877;39.750;-104.894;2023-05-03T11:58:21;83556.93;;;12.48;35.40
70437;BME280;57877;39.750;-104.894;2023-05-03T12:00:45;83553.77;;;12.55;35.64
70437;BME280;57877;39.750;-104.894;2023-05-03T12:03:15;83556.58;;;12.06;36.20
70437;BME280;57877;39.750;-104.894;2023-05-03T12:05:37;83559.00;;;12.54;35.64
70437;BME280;57877;39.750;-104.894;2023-05-03T12:08:02;83558.22;;;12.42;35.90
70437;BME280;57877;39.750;-104.894;2023-05-03T12:10:31;83559.97;;;12.86;35.63
70437;BME280;57877;39.750;-104.894;2023-05-03T12:12:55;83560.15;;;12.67;35.51
70437;BME280;57877;39.750;-104.894;2023-05-03T12:15:27;83562.54;;;12.59;35.69
70437;BME280;57877;39.750;-104.894;2023-05-03T12:17:46;83565.66;;;12.31;35.67
70437;BME280;57877;39.750;-104.894;2023-05-03T12:20:15;83568.12;;;12.64;35.42
70437;BME280;57877;39.750;-104.894;2023-05-03T12:22:39;83569.74;;;12.35;35.82
70437;BME280;57877;39.750;-104.894;2023-05-03T12:25:05;83576.24;;;12.21;35.58
70437;BME280;57877;39.750;-104.894;2023-05-03T12:27:30;83577.30;;;12.22;35.62
70437;BME280;57877;39.750;-104.894;2023-05-03T12:29:57;83579.18;;;12.62;35.78
70437;BME280;57877;39.750;-104.894;2023-05-03T12:32:23;83578.32;;;12.25;35.56
70437;BME280;57877;39.750;-104.894;2023-05-03T12:34:48;83577.99;;;12.32;35.35
70437;BME280;57877;39.750;-104.894;2023-05-03T12:37:15;83577.72;;;12.43;35.24
70437;BME280;57877;39.750;-104.894;2023-05-03T12:39:40;83577.75;;;12.96;34.59
70437;BME280;57877;39.750;-104.894;2023-05-03T12:42:06;83576.43;;;12.93;34.35